Wetterdaten: Woche 06.04.15 - 12.04.15 (KW15)
Datum Zeit Temperatur Luftfeuchte Luftdruck Niederschlag Windrichtung Sonnenschein Solar Wind
06.04.2015 00:00 -0,4 C 75 % 1023,2 hPa 0,0 l/m N-NO 0,00 h 0 W/m 0,7 km/h (0 Bft)
06.04.2015 01:00 -1,0 C 78 % 1023,4 hPa 0,0 l/m N 0,00 h 0 W/m 0,0 km/h (0 Bft)
06.04.2015 02:00 -1,6 C 82 % 1023,4 hPa 0,0 l/m N 0,00 h 0 W/m 0,0 km/h (0 Bft)
06.04.2015 03:00 -1,4 C 85 % 1023,3 hPa 0,0 l/m N 0,00 h 0 W/m 0,7 km/h (0 Bft)
06.04.2015 04:00 -1,3 C 85 % 1023,5 hPa 0,0 l/m N 0,00 h 0 W/m 2,0 km/h (1 Bft)
06.04.2015 05:00 -1,6 C 85 % 1023,6 hPa 0,0 l/m N-NO 0,00 h 0 W/m 2,3 km/h (1 Bft)
06.04.2015 06:00 -2,0 C 85 % 1023,9 hPa 0,0 l/m N 0,00 h 5 W/m 0,8 km/h (0 Bft)
06.04.2015 07:00 -1,9 C 86 % 1024,5 hPa 0,0 l/m N 0,00 h 33 W/m 0,0 km/h (0 Bft)
06.04.2015 08:00 0,4 C 77 % 1025,0 hPa 0,0 l/m N-NO 0,58 h 167 W/m 3,3 km/h (1 Bft)
06.04.2015 09:00 2,1 C 73 % 1025,4 hPa 0,0 l/m N-NO 0,08 h 140 W/m 3,3 km/h (1 Bft)
06.04.2015 10:00 2,6 C 76 % 1025,5 hPa 0,0 l/m N-NO 0,25 h 251 W/m 3,3 km/h (1 Bft)
06.04.2015 11:00 4,7 C 59 % 1025,7 hPa 0,0 l/m N 0,00 h 291 W/m 5,9 km/h (2 Bft)
06.04.2015 12:00 5,3 C 53 % 1025,6 hPa 0,0 l/m N-NO 0,00 h 179 W/m 11,7 km/h (2 Bft)
06.04.2015 13:00 5,2 C 55 % 1025,9 hPa 0,0 l/m N-NO 0,00 h 167 W/m 9,4 km/h (2 Bft)
06.04.2015 14:00 5,7 C 52 % 1026,0 hPa 0,0 l/m N 0,00 h 197 W/m 13,8 km/h (3 Bft)
06.04.2015 15:00 5,5 C 55 % 1026,3 hPa 0,0 l/m N 0,00 h 99 W/m 16,8 km/h (3 Bft)
06.04.2015 16:00 5,1 C 59 % 1026,8 hPa 0,0 l/m N 0,00 h 97 W/m 17,3 km/h (3 Bft)
06.04.2015 17:00 5,2 C 59 % 1027,0 hPa 0,0 l/m N-NO 0,00 h 113 W/m 17,8 km/h (3 Bft)
06.04.2015 18:00 5,0 C 63 % 1027,3 hPa 0,0 l/m N-NW 0,42 h 151 W/m 11,3 km/h (2 Bft)
06.04.2015 19:00 3,6 C 68 % 1028,2 hPa 0,0 l/m N-NW 0,00 h 17 W/m 4,8 km/h (1 Bft)
06.04.2015 20:00 1,6 C 78 % 1028,9 hPa 0,0 l/m N 0,00 h 0 W/m 0,5 km/h (0 Bft)
06.04.2015 21:00 0,7 C 81 % 1029,7 hPa 0,0 l/m N 0,00 h 0 W/m 0,4 km/h (0 Bft)
06.04.2015 22:00 1,0 C 82 % 1030,3 hPa 0,0 l/m N-NW 0,00 h 0 W/m 1,3 km/h (1 Bft)
06.04.2015 23:00 1,1 C 83 % 1031,1 hPa 0,0 l/m N 0,00 h 0 W/m 0,3 km/h (0 Bft)
07.04.2015 00:00 0,7 C 83 % 1031,7 hPa 0,0 l/m N 0,00 h 0 W/m 0,5 km/h (0 Bft)
07.04.2015 01:00 0,5 C 84 % 1032,4 hPa 0,0 l/m N 0,00 h 0 W/m 1,2 km/h (1 Bft)
07.04.2015 02:00 0,4 C 83 % 1032,7 hPa 0,0 l/m N 0,00 h 0 W/m 0,7 km/h (0 Bft)
07.04.2015 03:00 -0,3 C 84 % 1033,0 hPa 0,0 l/m N-NW 0,00 h 0 W/m 4,0 km/h (1 Bft)
07.04.2015 04:00 -1,1 C 86 % 1033,2 hPa 0,0 l/m N 0,00 h 0 W/m 0,8 km/h (0 Bft)
07.04.2015 05:00 -1,6 C 87 % 1033,5 hPa 0,0 l/m N 0,00 h 0 W/m 0,0 km/h (0 Bft)
07.04.2015 06:00 -2,2 C 89 % 1034,2 hPa 0,0 l/m N 0,00 h 6 W/m 0,0 km/h (0 Bft)
07.04.2015 07:00 -1,9 C 91 % 1034,8 hPa 0,0 l/m N 0,00 h 38 W/m 0,0 km/h (0 Bft)
07.04.2015 08:00 -0,1 C 89 % 1035,5 hPa 0,0 l/m N-NW 0,75 h 188 W/m 0,0 km/h (0 Bft)
07.04.2015 09:00 2,2 C 80 % 1036,0 hPa 0,0 l/m O-NO 1,00 h 365 W/m 8,9 km/h (2 Bft)
07.04.2015 10:00 3,6 C 70 % 1036,2 hPa 0,0 l/m O-NO 1,00 h 557 W/m 11,3 km/h (2 Bft)
07.04.2015 11:00 5,1 C 56 % 1036,1 hPa 0,0 l/m O-NO 1,00 h 701 W/m 17,2 km/h (3 Bft)
07.04.2015 12:00 6,0 C 52 % 1035,8 hPa 0,0 l/m O-SO 1,00 h 750 W/m 16,5 km/h (3 Bft)
07.04.2015 13:00 7,2 C 50 % 1035,5 hPa 0,0 l/m O 1,00 h 745 W/m 13,8 km/h (3 Bft)
07.04.2015 14:00 8,4 C 45 % 1035,0 hPa 0,0 l/m O 1,00 h 740 W/m 14,2 km/h (3 Bft)
07.04.2015 15:00 8,9 C 43 % 1034,2 hPa 0,0 l/m N-NO 1,00 h 692 W/m 12,9 km/h (3 Bft)
07.04.2015 16:00 9,6 C 39 % 1033,7 hPa 0,0 l/m O-SO 1,00 h 581 W/m 11,3 km/h (2 Bft)
07.04.2015 17:00 9,8 C 36 % 1033,2 hPa 0,0 l/m NO 1,00 h 428 W/m 10,6 km/h (2 Bft)
07.04.2015 18:00 9,5 C 37 % 1033,2 hPa 0,0 l/m O-SO 1,00 h 233 W/m 7,9 km/h (2 Bft)
07.04.2015 19:00 7,6 C 49 % 1033,3 hPa 0,0 l/m O 0,00 h 23 W/m 3,7 km/h (1 Bft)
07.04.2015 20:00 5,1 C 63 % 1033,2 hPa 0,0 l/m N 0,00 h 0 W/m 0,4 km/h (0 Bft)
07.04.2015 21:00 3,0 C 71 % 1033,4 hPa 0,0 l/m N 0,00 h 0 W/m 0,4 km/h (0 Bft)
07.04.2015 22:00 2,1 C 73 % 1033,4 hPa 0,0 l/m N 0,00 h 0 W/m 0,0 km/h (0 Bft)
07.04.2015 23:00 1,2 C 75 % 1033,5 hPa 0,0 l/m N 0,00 h 0 W/m 0,0 km/h (0 Bft)
08.04.2015 00:00 0,3 C 78 % 1033,4 hPa 0,0 l/m N 0,00 h 0 W/m 0,0 km/h (0 Bft)
08.04.2015 01:00 -0,6 C 81 % 1033,2 hPa 0,0 l/m N 0,00 h 0 W/m 0,0 km/h (0 Bft)
08.04.2015 02:00 -1,2 C 83 % 1033,1 hPa 0,0 l/m N 0,00 h 0 W/m 0,0 km/h (0 Bft)
08.04.2015 03:00 -1,6 C 84 % 1032,6 hPa 0,0 l/m N 0,00 h 0 W/m 0,0 km/h (0 Bft)
08.04.2015 04:00 -2,1 C 85 % 1032,4 hPa 0,0 l/m N 0,00 h 0 W/m 0,0 km/h (0 Bft)
08.04.2015 05:00 -2,4 C 87 % 1032,5 hPa 0,0 l/m N 0,00 h 0 W/m 0,0 km/h (0 Bft)
08.04.2015 06:00 -2,7 C 88 % 1032,4 hPa 0,0 l/m N 0,00 h 5 W/m 0,0 km/h (0 Bft)
08.04.2015 07:00 -2,8 C 90 % 1032,5 hPa 0,0 l/m N 0,00 h 38 W/m 0,0 km/h (0 Bft)
08.04.2015 08:00 -0,6 C 89 % 1032,8 hPa 0,0 l/m O 0,83 h 203 W/m 0,7 km/h (0 Bft)
08.04.2015 09:00 3,6 C 74 % 1032,8 hPa 0,0 l/m S-SW 1,00 h 393 W/m 7,4 km/h (2 Bft)
08.04.2015 10:00 6,9 C 56 % 1032,7 hPa 0,0 l/m S-SW 1,00 h 551 W/m 10,0 km/h (2 Bft)
08.04.2015 11:00 9,3 C 45 % 1032,3 hPa 0,0 l/m S-SO 1,00 h 678 W/m 7,5 km/h (2 Bft)
08.04.2015 12:00 10,6 C 40 % 1032,1 hPa 0,0 l/m O-SO 1,00 h 761 W/m 7,5 km/h (2 Bft)
08.04.2015 13:00 12,3 C 33 % 1031,6 hPa 0,0 l/m N-NW 1,00 h 795 W/m 8,2 km/h (2 Bft)
08.04.2015 14:00 13,5 C 34 % 1031,1 hPa 0,0 l/m O-SO 1,00 h 762 W/m 9,4 km/h (2 Bft)
08.04.2015 15:00 14,6 C 33 % 1030,5 hPa 0,0 l/m O 1,00 h 683 W/m 10,1 km/h (2 Bft)
08.04.2015 16:00 15,0 C 34 % 1030,1 hPa 0,0 l/m O-NO 1,00 h 568 W/m 9,9 km/h (2 Bft)
08.04.2015 17:00 14,9 C 36 % 1029,8 hPa 0,0 l/m O-SO 1,00 h 405 W/m 13,4 km/h (3 Bft)
08.04.2015 18:00 14,3 C 40 % 1029,8 hPa 0,0 l/m O 1,00 h 215 W/m 10,6 km/h (2 Bft)
08.04.2015 19:00 12,7 C 46 % 1029,7 hPa 0,0 l/m O 0,17 h 27 W/m 8,4 km/h (2 Bft)
08.04.2015 20:00 10,8 C 53 % 1029,9 hPa 0,0 l/m N 0,00 h 0 W/m 0,8 km/h (0 Bft)
08.04.2015 21:00 9,0 C 59 % 1030,1 hPa 0,0 l/m N 0,00 h 0 W/m 0,9 km/h (0 Bft)
08.04.2015 22:00 7,1 C 64 % 1029,8 hPa 0,0 l/m N 0,00 h 0 W/m 0,1 km/h (0 Bft)
08.04.2015 23:00 5,8 C 70 % 1029,4 hPa 0,0 l/m N 0,00 h 0 W/m 0,9 km/h (0 Bft)
09.04.2015 00:00 5,8 C 72 % 1029,1 hPa 0,0 l/m N 0,00 h 0 W/m 1,3 km/h (1 Bft)
09.04.2015 01:00 4,8 C 75 % 1028,6 hPa 0,0 l/m O 0,00 h 0 W/m 1,7 km/h (1 Bft)
09.04.2015 02:00 3,8 C 79 % 1027,7 hPa 0,0 l/m O 0,00 h 0 W/m 1,9 km/h (1 Bft)
09.04.2015 03:00 3,2 C 82 % 1027,6 hPa 0,0 l/m O 0,00 h 0 W/m 3,7 km/h (1 Bft)
09.04.2015 04:00 2,9 C 85 % 1027,2 hPa 0,0 l/m O 0,00 h 0 W/m 5,9 km/h (2 Bft)
09.04.2015 05:00 2,8 C 86 % 1027,2 hPa 0,0 l/m O 0,00 h 0 W/m 3,9 km/h (1 Bft)
09.04.2015 06:00 2,5 C 89 % 1027,1 hPa 0,0 l/m O-NO 0,08 h 7 W/m 3,6 km/h (1 Bft)
09.04.2015 07:00 2,7 C 91 % 1027,4 hPa 0,0 l/m NO 0,00 h 38 W/m 5,9 km/h (2 Bft)
09.04.2015 08:00 3,9 C 90 % 1027,4 hPa 0,0 l/m N 0,33 h 162 W/m 9,1 km/h (2 Bft)
09.04.2015 09:00 6,8 C 80 % 1027,1 hPa 0,0 l/m N 1,00 h 366 W/m 8,9 km/h (2 Bft)
09.04.2015 10:00 9,0 C 68 % 1026,8 hPa 0,0 l/m O 1,00 h 539 W/m 6,0 km/h (2 Bft)
09.04.2015 11:00 10,8 C 61 % 1026,4 hPa 0,0 l/m SW 1,00 h 669 W/m 8,4 km/h (2 Bft)
09.04.2015 12:00 12,4 C 55 % 1025,9 hPa 0,0 l/m W 1,00 h 754 W/m 7,5 km/h (2 Bft)
09.04.2015 13:00 14,8 C 47 % 1025,3 hPa 0,0 l/m S-SW 1,00 h 789 W/m 9,8 km/h (2 Bft)
09.04.2015 14:00 16,3 C 43 % 1024,8 hPa 0,0 l/m W-SW 1,00 h 764 W/m 10,3 km/h (2 Bft)
09.04.2015 15:00 17,3 C 43 % 1024,3 hPa 0,0 l/m W 1,00 h 679 W/m 7,8 km/h (2 Bft)
09.04.2015 16:00 18,0 C 43 % 1023,8 hPa 0,0 l/m NW 1,00 h 553 W/m 9,4 km/h (2 Bft)
09.04.2015 17:00 18,2 C 43 % 1023,4 hPa 0,0 l/m W-SW 1,00 h 398 W/m 9,5 km/h (2 Bft)
09.04.2015 18:00 17,5 C 42 % 1023,4 hPa 0,0 l/m W-SW 1,00 h 212 W/m 11,2 km/h (2 Bft)
09.04.2015 19:00 15,7 C 45 % 1023,5 hPa 0,0 l/m SW 0,08 h 28 W/m 6,3 km/h (2 Bft)
09.04.2015 20:00 12,7 C 58 % 1023,6 hPa 0,0 l/m N 0,00 h 0 W/m 0,4 km/h (0 Bft)
09.04.2015 21:00 10,3 C 67 % 1023,8 hPa 0,0 l/m N 0,00 h 0 W/m 0,0 km/h (0 Bft)
09.04.2015 22:00 9,3 C 70 % 1023,8 hPa 0,0 l/m N 0,00 h 0 W/m 0,0 km/h (0 Bft)
09.04.2015 23:00 8,8 C 72 % 1023,5 hPa 0,0 l/m N 0,00 h 0 W/m 0,0 km/h (0 Bft)
10.04.2015 00:00 7,3 C 75 % 1023,5 hPa 0,0 l/m N 0,00 h 0 W/m 0,1 km/h (0 Bft)
10.04.2015 01:00 6,1 C 79 % 1023,4 hPa 0,0 l/m N 0,00 h 0 W/m 0,0 km/h (0 Bft)
10.04.2015 02:00 5,1 C 81 % 1023,3 hPa 0,0 l/m N 0,00 h 0 W/m 0,0 km/h (0 Bft)
10.04.2015 03:00 4,2 C 82 % 1023,1 hPa 0,0 l/m N 0,00 h 0 W/m 0,0 km/h (0 Bft)
10.04.2015 04:00 3,5 C 84 % 1023,0 hPa 0,0 l/m N 0,00 h 0 W/m 0,0 km/h (0 Bft)
10.04.2015 05:00 2,8 C 86 % 1022,9 hPa 0,0 l/m N 0,00 h 0 W/m 0,0 km/h (0 Bft)
10.04.2015 06:00 2,2 C 87 % 1022,8 hPa 0,0 l/m N 0,08 h 9 W/m 0,0 km/h (0 Bft)
10.04.2015 07:00 2,4 C 90 % 1022,9 hPa 0,0 l/m N 0,00 h 46 W/m 0,0 km/h (0 Bft)
10.04.2015 08:00 4,3 C 89 % 1023,0 hPa 0,0 l/m N 0,67 h 171 W/m 0,0 km/h (0 Bft)
10.04.2015 09:00 8,9 C 77 % 1022,8 hPa 0,0 l/m SW 1,00 h 372 W/m 0,7 km/h (0 Bft)
10.04.2015 10:00 13,0 C 63 % 1022,5 hPa 0,0 l/m S-SW 1,00 h 532 W/m 10,9 km/h (2 Bft)
10.04.2015 11:00 15,7 C 57 % 1022,1 hPa 0,0 l/m S-SW 1,00 h 676 W/m 12,9 km/h (3 Bft)
10.04.2015 12:00 18,1 C 48 % 1021,5 hPa 0,0 l/m S-SW 1,00 h 745 W/m 14,0 km/h (3 Bft)
10.04.2015 13:00 19,6 C 34 % 1020,8 hPa 0,0 l/m SW 1,00 h 714 W/m 14,7 km/h (3 Bft)
10.04.2015 14:00 20,6 C 31 % 1020,1 hPa 0,0 l/m SW 1,00 h 657 W/m 11,2 km/h (2 Bft)
10.04.2015 15:00 21,1 C 30 % 1019,3 hPa 0,0 l/m W 1,00 h 609 W/m 8,7 km/h (2 Bft)
10.04.2015 16:00 21,3 C 28 % 1018,7 hPa 0,0 l/m W 1,00 h 483 W/m 7,5 km/h (2 Bft)
10.04.2015 17:00 21,1 C 26 % 1018,2 hPa 0,0 l/m W-NW 0,67 h 282 W/m 6,2 km/h (2 Bft)
10.04.2015 18:00 20,1 C 29 % 1017,8 hPa 0,0 l/m N 0,00 h 123 W/m 1,9 km/h (1 Bft)
10.04.2015 19:00 18,6 C 37 % 1017,7 hPa 0,0 l/m N 0,00 h 34 W/m 0,8 km/h (0 Bft)
10.04.2015 20:00 14,9 C 49 % 1017,8 hPa 0,0 l/m N 0,00 h 0 W/m 0,0 km/h (0 Bft)
10.04.2015 21:00 12,4 C 56 % 1018,2 hPa 0,0 l/m N 0,00 h 0 W/m 0,4 km/h (0 Bft)
10.04.2015 22:00 11,3 C 63 % 1018,3 hPa 0,0 l/m W-NW 0,00 h 0 W/m 2,4 km/h (1 Bft)
10.04.2015 23:00 10,4 C 66 % 1018,4 hPa 0,0 l/m N 0,00 h 0 W/m 0,1 km/h (0 Bft)
11.04.2015 00:00 9,7 C 70 % 1018,5 hPa 0,0 l/m N 0,00 h 0 W/m 0,8 km/h (0 Bft)
11.04.2015 01:00 8,8 C 74 % 1018,5 hPa 0,0 l/m N 0,00 h 0 W/m 0,3 km/h (0 Bft)
11.04.2015 02:00 8,0 C 77 % 1018,8 hPa 0,0 l/m N 0,00 h 0 W/m 2,3 km/h (1 Bft)
11.04.2015 03:00 8,0 C 77 % 1019,3 hPa 0,0 l/m N 0,00 h 0 W/m 0,5 km/h (0 Bft)
11.04.2015 04:00 9,0 C 72 % 1019,6 hPa 0,0 l/m SW 0,00 h 0 W/m 9,9 km/h (2 Bft)
11.04.2015 05:00 11,4 C 61 % 1019,8 hPa 0,0 l/m SW 0,00 h 0 W/m 18,0 km/h (3 Bft)
11.04.2015 06:00 11,2 C 65 % 1020,3 hPa 0,0 l/m W-SW 0,00 h 5 W/m 10,2 km/h (2 Bft)
11.04.2015 07:00 10,6 C 66 % 1020,6 hPa 0,0 l/m W-SW 0,00 h 23 W/m 10,2 km/h (2 Bft)
11.04.2015 08:00 10,5 C 71 % 1020,9 hPa 0,0 l/m SW 0,08 h 93 W/m 9,0 km/h (2 Bft)
11.04.2015 09:00 10,4 C 75 % 1021,1 hPa 0,0 l/m SW 0,00 h 113 W/m 10,2 km/h (2 Bft)
11.04.2015 10:00 12,1 C 67 % 1021,3 hPa 0,0 l/m SW 0,08 h 204 W/m 16,9 km/h (3 Bft)
11.04.2015 11:00 13,7 C 53 % 1021,6 hPa 0,0 l/m W-SW 0,58 h 456 W/m 26,3 km/h (4 Bft)
11.04.2015 12:00 14,9 C 46 % 1021,5 hPa 0,0 l/m W-SW 0,58 h 477 W/m 28,9 km/h (5 Bft)
11.04.2015 13:00 15,6 C 46 % 1021,4 hPa 0,0 l/m W-SW 0,67 h 555 W/m 26,8 km/h (4 Bft)
11.04.2015 14:00 15,2 C 48 % 1021,9 hPa 0,0 l/m W 0,17 h 291 W/m 27,1 km/h (4 Bft)
11.04.2015 15:00 13,7 C 61 % 1022,5 hPa 0,0 l/m W 0,08 h 272 W/m 23,7 km/h (4 Bft)
11.04.2015 16:00 14,2 C 59 % 1022,6 hPa 0,0 l/m W-SW 0,08 h 173 W/m 23,4 km/h (4 Bft)
11.04.2015 17:00 13,1 C 65 % 1023,4 hPa 0,0 l/m W 0,08 h 124 W/m 22,1 km/h (4 Bft)
11.04.2015 18:00 13,0 C 65 % 1023,7 hPa 0,0 l/m W-SW 0,33 h 133 W/m 23,6 km/h (4 Bft)
11.04.2015 19:00 11,9 C 69 % 1024,1 hPa 0,0 l/m W-SW 0,25 h 23 W/m 12,9 km/h (3 Bft)
11.04.2015 20:00 10,8 C 75 % 1024,8 hPa 0,0 l/m SW 0,00 h 7 W/m 7,0 km/h (2 Bft)
11.04.2015 21:00 10,9 C 76 % 1025,5 hPa 0,0 l/m SW 0,00 h 0 W/m 10,5 km/h (2 Bft)
11.04.2015 22:00 10,8 C 77 % 1025,9 hPa 0,0 l/m W-SW 0,00 h 0 W/m 10,5 km/h (2 Bft)
11.04.2015 23:00 10,4 C 79 % 1026,4 hPa 0,0 l/m W-SW 0,00 h 0 W/m 6,7 km/h (2 Bft)
12.04.2015 00:00 10,0 C 80 % 1026,7 hPa 0,0 l/m W-SW 0,00 h 0 W/m 5,3 km/h (1 Bft)
12.04.2015 01:00 9,9 C 81 % 1027,2 hPa 0,0 l/m W-SW 0,00 h 0 W/m 5,9 km/h (2 Bft)
12.04.2015 02:00 9,7 C 82 % 1027,3 hPa 0,0 l/m W-SW 0,00 h 0 W/m 4,1 km/h (1 Bft)
12.04.2015 03:00 9,5 C 81 % 1027,3 hPa 0,0 l/m N 0,00 h 0 W/m 0,7 km/h (0 Bft)
12.04.2015 04:00 8,7 C 83 % 1027,6 hPa 0,0 l/m N 0,00 h 0 W/m 1,2 km/h (1 Bft)
12.04.2015 05:00 8,2 C 85 % 1027,7 hPa 0,0 l/m N 0,00 h 0 W/m 0,3 km/h (0 Bft)
12.04.2015 06:00 7,7 C 86 % 1027,9 hPa 0,0 l/m N 0,00 h 7 W/m 0,0 km/h (0 Bft)
12.04.2015 07:00 7,7 C 89 % 1028,1 hPa 0,0 l/m N 0,00 h 40 W/m 0,1 km/h (0 Bft)
12.04.2015 08:00 8,9 C 87 % 1028,5 hPa 0,0 l/m W-SW 0,25 h 139 W/m 2,1 km/h (1 Bft)
12.04.2015 09:00 11,1 C 80 % 1028,6 hPa 0,0 l/m S-SW 0,08 h 182 W/m 5,1 km/h (1 Bft)
12.04.2015 10:00 12,9 C 73 % 1028,6 hPa 0,0 l/m W-SW 0,33 h 353 W/m 10,2 km/h (2 Bft)
12.04.2015 11:00 15,0 C 61 % 1028,5 hPa 0,0 l/m SW 0,75 h 549 W/m 14,2 km/h (3 Bft)
12.04.2015 12:00 15,4 C 54 % 1028,3 hPa 0,0 l/m W-SW 0,42 h 423 W/m 12,1 km/h (2 Bft)
12.04.2015 13:00 17,2 C 47 % 1027,7 hPa 0,0 l/m W 0,83 h 649 W/m 14,9 km/h (3 Bft)
12.04.2015 14:00 18,0 C 44 % 1027,1 hPa 0,0 l/m W-SW 0,83 h 744 W/m 14,5 km/h (3 Bft)
12.04.2015 15:00 18,2 C 44 % 1026,4 hPa 0,0 l/m SW 0,75 h 641 W/m 11,5 km/h (2 Bft)
12.04.2015 16:00 18,5 C 43 % 1025,8 hPa 0,0 l/m S-SW 0,50 h 384 W/m 11,9 km/h (2 Bft)
12.04.2015 17:00 18,5 C 44 % 1025,6 hPa 0,0 l/m NW 0,83 h 377 W/m 7,2 km/h (2 Bft)
12.04.2015 18:00 18,1 C 45 % 1025,4 hPa 0,0 l/m SW 1,00 h 206 W/m 9,9 km/h (2 Bft)
12.04.2015 19:00 16,8 C 49 % 1025,3 hPa 0,0 l/m W-SW 0,17 h 42 W/m 8,0 km/h (2 Bft)
12.04.2015 20:00 14,4 C 57 % 1025,5 hPa 0,0 l/m N 0,00 h 6 W/m 2,9 km/h (1 Bft)
12.04.2015 21:00 12,3 C 65 % 1025,9 hPa 0,0 l/m N 0,00 h 0 W/m 0,5 km/h (0 Bft)
12.04.2015 22:00 10,8 C 70 % 1026,0 hPa 0,0 l/m W-SW 0,00 h 0 W/m 1,5 km/h (1 Bft)
12.04.2015 23:00 9,9 C 72 % 1026,2 hPa 0,0 l/m N 0,00 h 0 W/m 0,3 km/h (0 Bft)
Min-Datum _ 08.04.15 10.04.15 10.04.15 - - - - 06.04.15
_ Min-Zeit 07:10 17:15 18:30 - - - - 00:05
Minimum _ -3,1 C 25 % 1017,6 hPa - - - - 0,0 km/h (0 Bft)
Max-Datum _ 10.04.15 07.04.15 07.04.15 06.04.15 - 06.04.15 12.04.15 11.04.15
_ Max-Zeit 16:30 07:30 10:05 00:00 - 08:15 12:45 11:55
Maximum _ 21,6 C 92 % 1036,3 hPa 0,0 l/m - 0,08 h 881 W/m 35,4 km/h
W-SW (5 Bft)
Durchschnitt _ 8,2 C 66 % 1026,7 hPa #0,0 l/m W-SW #52:45 h 331 W/m 6,4 km/h (2 Bft)